Aérodrome :
LOGIN :

S'inscrire | Disclaimer

   EN    FR    IT 

 










Légende :    VFR   VFR Marginal   IFR   IFR Intensif   IFR Très Intensif
Visi : 
Plafond : 
>= 8 km
>= 3000ft
5 à 8 km
1000 à 3000 ft
1500m à 5 km
500 à 1000 ft
800 à 1500m
200 à 500 ft
< 800m
< 200 ft
Symboles :   Orages  Brouillard  Fortes neiges  Fortes précipitations  Vent > 20 kt
SIGMETs :   Divers  Orages  Givrage  Turbulence  Onde Orograph.  Cendres Volcan.






- Altitude de l'aérodrome : 14 ft
- Code IATA : BRE


EDDW - Bremen Neuenland

DERNIER METAR :
  • 151150Z 25023G37KT 9999 SCT041 08/02 Q0995 NOSIG

METARs EXPIRÉS :
  • 151120Z 24022KT 9999 FEW040 08/02 Q0995 TEMPO 24025G40KT
  • 151050Z 24024G41KT 9999 FEW035 08/02 Q0994 NOSIG
  • 151020Z 25025G39KT 9999 FEW035 08/02 Q0994 NOSIG
  • 150950Z 24025KT 9999 SCT035 09/03 Q0993 TEMPO 24020G35KT
  • 150920Z 24020G34KT 9999 SCT028 09/04 Q0992 NOSIG

TAF TAF EDDW
Valide du 15 à 12h jusqu'au 16 à 12h UTC


151100Z 1512/1612 24025G40KT 9999 FEW035
BECMG 1515/1518 23015G25KT
BECMG 1518/1520 23013KT
BECMG 1600/1603 18007KT



MET'MAP, la Météo Aéronautique d'un coup d'oeil ! - Copyright ORBIFLY Décembre 2007 - Disclaimer

ORBIFLY MET'MAP TEAM :

Programmation & Développement : Alexandra Zaïnal
Sur une idée originale de : Baudouin d'Aumeries
Assistance à la programmation : Marc-Olivier Méhu
Soutien technique & logistique : Manuel Goepfert

Contact : metmap@orbifly.com




SOURCES & CREDITS :

   NOAA